sensor_id;sensor_type;location;lat;lon;timestamp;temperature;humidity
15013;DHT22;7603;49.432;11.418;2023-03-14T00:02:02;8.00;99.90
15013;DHT22;7603;49.432;11.418;2023-03-14T00:04:28;8.00;99.90
15013;DHT22;7603;49.432;11.418;2023-03-14T00:06:53;7.90;99.90
15013;DHT22;7603;49.432;11.418;2023-03-14T00:09:19;7.90;99.90
15013;DHT22;7603;49.432;11.418;2023-03-14T00:11:44;7.90;99.90
15013;DHT22;7603;49.432;11.418;2023-03-14T00:14:11;7.90;99.90
15013;DHT22;7603;49.432;11.418;2023-03-14T00:16:37;7.90;99.90
15013;DHT22;7603;49.432;11.418;2023-03-14T00:19:02;7.90;99.90
15013;DHT22;7603;49.432;11.418;2023-03-14T00:21:28;7.80;99.90
15013;DHT22;7603;49.432;11.418;2023-03-14T00:23:54;7.90;99.90
15013;DHT22;7603;49.432;11.418;2023-03-14T00:26:20;7.90;99.90
15013;DHT22;7603;49.432;11.418;2023-03-14T00:28:47;7.80;99.90
15013;DHT22;7603;49.432;11.418;2023-03-14T00:31:14;7.80;99.90
15013;DHT22;7603;49.432;11.418;2023-03-14T00:33:41;7.90;99.90
15013;DHT22;7603;49.432;11.418;2023-03-14T00:36:10;7.90;99.90
15013;DHT22;7603;49.432;11.418;2023-03-14T00:38:38;7.90;99.90
15013;DHT22;7603;49.432;11.418;2023-03-14T00:41:12;7.90;99.90
15013;DHT22;7603;49.432;11.418;2023-03-14T00:43:38;7.90;99.90
15013;DHT22;7603;49.432;11.418;2023-03-14T00:46:04;7.90;99.90
15013;DHT22;7603;49.432;11.418;2023-03-14T00:48:30;7.90;99.90
15013;DHT22;7603;49.432;11.418;2023-03-14T00:50:55;7.90;99.90
15013;DHT22;7603;49.432;11.418;2023-03-14T00:53:21;8.00;99.90
15013;DHT22;7603;49.432;11.418;2023-03-14T00:55:47;8.00;99.90
15013;DHT22;7603;49.432;11.418;2023-03-14T00:58:15;8.00;99.90
15013;DHT22;7603;49.432;11.418;2023-03-14T01:00:41;8.00;99.90
15013;DHT22;7603;49.432;11.418;2023-03-14T01:03:08;8.00;99.90
15013;DHT22;7603;49.432;11.418;2023-03-14T01:05:34;8.00;99.90
15013;DHT22;7603;49.432;11.418;2023-03-14T01:07:59;8.00;99.90
15013;DHT22;7603;49.432;11.418;2023-03-14T01:10:25;7.90;99.90
15013;DHT22;7603;49.432;11.418;2023-03-14T01:12:51;8.00;99.90
15013;DHT22;7603;49.432;11.418;2023-03-14T01:15:17;8.00;99.90
15013;DHT22;7603;49.432;11.418;2023-03-14T01:17:43;8.00;99.90
15013;DHT22;7603;49.432;11.418;2023-03-14T01:20:11;8.00;99.90
15013;DHT22;7603;49.432;11.418;2023-03-14T01:22:38;8.00;99.90
15013;DHT22;7603;49.432;11.418;2023-03-14T01:25:10;8.00;99.90
15013;DHT22;7603;49.432;11.418;2023-03-14T01:27:36;8.00;99.90
15013;DHT22;7603;49.432;11.418;2023-03-14T01:30:03;8.00;99.90
15013;DHT22;7603;49.432;11.418;2023-03-14T01:32:29;8.00;99.90
15013;DHT22;7603;49.432;11.418;2023-03-14T01:34:55;7.90;99.90
15013;DHT22;7603;49.432;11.418;2023-03-14T01:37:20;8.00;99.90
15013;DHT22;7603;49.432;11.418;2023-03-14T01:39:46;8.00;99.90
15013;DHT22;7603;49.432;11.418;2023-03-14T01:42:13;7.90;99.90
15013;DHT22;7603;49.432;11.418;2023-03-14T01:44:55;8.00;99.90
15013;DHT22;7603;49.432;11.418;2023-03-14T01:47:21;8.00;99.90
15013;DHT22;7603;49.432;11.418;2023-03-14T01:49:50;7.90;99.90
15013;DHT22;7603;49.432;11.418;2023-03-14T01:52:25;8.00;99.90
15013;DHT22;7603;49.432;11.418;2023-03-14T01:54:59;7.90;99.90
15013;DHT22;7603;49.432;11.418;2023-03-14T01:57:31;8.00;99.90
15013;DHT22;7603;49.432;11.418;2023-03-14T02:02:31;8.00;99.90
15013;DHT22;7603;49.432;11.418;2023-03-14T02:04:57;8.00;99.90
15013;DHT22;7603;49.432;11.418;2023-03-14T02:07:55;8.00;99.90
15013;DHT22;7603;49.432;11.418;2023-03-14T02:10:23;8.00;99.90
15013;DHT22;7603;49.432;11.418;2023-03-14T02:12:49;8.00;99.90
15013;DHT22;7603;49.432;11.418;2023-03-14T02:15:16;8.10;99.90
15013;DHT22;7603;49.432;11.418;2023-03-14T02:17:43;8.10;99.90
15013;DHT22;7603;49.432;11.418;2023-03-14T02:20:31;8.10;99.90
15013;DHT22;7603;49.432;11.418;2023-03-14T02:22:59;8.10;99.90
15013;DHT22;7603;49.432;11.418;2023-03-14T02:25:48;8.20;99.90
15013;DHT22;7603;49.432;11.418;2023-03-14T02:28:16;8.20;99.90
15013;DHT22;7603;49.432;11.418;2023-03-14T02:30:42;8.20;99.90
15013;DHT22;7603;49.432;11.418;2023-03-14T02:33:10;8.20;99.90
15013;DHT22;7603;49.432;11.418;2023-03-14T02:36:02;8.20;99.90
15013;DHT22;7603;49.432;11.418;2023-03-14T02:38:50;8.20;99.90
15013;DHT22;7603;49.432;11.418;2023-03-14T02:41:17;8.20;99.90
15013;DHT22;7603;49.432;11.418;2023-03-14T02:43:43;8.20;99.90
15013;DHT22;7603;49.432;11.418;2023-03-14T02:46:11;8.10;99.90
15013;DHT22;7603;49.432;11.418;2023-03-14T02:51:16;8.10;99.90
15013;DHT22;7603;49.432;11.418;2023-03-14T02:53:42;8.10;99.90
15013;DHT22;7603;49.432;11.418;2023-03-14T02:56:08;8.10;99.90
15013;DHT22;7603;49.432;11.418;2023-03-14T02:58:34;8.10;99.90
15013;DHT22;7603;49.432;11.418;2023-03-14T03:01:00;8.00;99.90
15013;DHT22;7603;49.432;11.418;2023-03-14T03:03:26;8.00;99.90
15013;DHT22;7603;49.432;11.418;2023-03-14T03:05:53;8.00;99.90
15013;DHT22;7603;49.432;11.418;2023-03-14T03:08:20;8.00;99.90
15013;DHT22;7603;49.432;11.418;2023-03-14T03:10:46;8.00;99.90
15013;DHT22;7603;49.432;11.418;2023-03-14T03:13:12;8.00;99.90
15013;DHT22;7603;49.432;11.418;2023-03-14T03:15:38;8.00;99.90
15013;DHT22;7603;49.432;11.418;2023-03-14T03:18:03;8.00;99.90
15013;DHT22;7603;49.432;11.418;2023-03-14T03:20:29;7.90;99.90
15013;DHT22;7603;49.432;11.418;2023-03-14T03:22:55;8.00;99.90
15013;DHT22;7603;49.432;11.418;2023-03-14T03:25:21;7.90;99.90
15013;DHT22;7603;49.432;11.418;2023-03-14T03:27:46;7.80;99.90
15013;DHT22;7603;49.432;11.418;2023-03-14T03:30:12;7.80;99.90
15013;DHT22;7603;49.432;11.418;2023-03-14T03:32:38;7.80;99.90
15013;DHT22;7603;49.432;11.418;2023-03-14T03:35:04;7.80;99.90
15013;DHT22;7603;49.432;11.418;2023-03-14T03:37:31;7.80;99.90
15013;DHT22;7603;49.432;11.418;2023-03-14T03:39:57;7.70;99.90
15013;DHT22;7603;49.432;11.418;2023-03-14T03:42:22;7.80;99.90
15013;DHT22;7603;49.432;11.418;2023-03-14T03:44:48;7.70;99.90
15013;DHT22;7603;49.432;11.418;2023-03-14T03:47:15;7.70;99.90
15013;DHT22;7603;49.432;11.418;2023-03-14T03:49:42;7.70;99.90
15013;DHT22;7603;49.432;11.418;2023-03-14T03:52:07;7.70;99.90
15013;DHT22;7603;49.432;11.418;2023-03-14T03:54:34;7.70;99.90
15013;DHT22;7603;49.432;11.418;2023-03-14T03:57:00;7.60;99.90
15013;DHT22;7603;49.432;11.418;2023-03-14T03:59:26;7.60;99.90
15013;DHT22;7603;49.432;11.418;2023-03-14T04:01:51;7.60;99.90
15013;DHT22;7603;49.432;11.418;2023-03-14T04:04:17;7.60;99.90
15013;DHT22;7603;49.432;11.418;2023-03-14T04:06:42;7.60;99.90
15013;DHT22;7603;49.432;11.418;2023-03-14T04:09:09;7.60;99.90
15013;DHT22;7603;49.432;11.418;2023-03-14T04:11:35;7.50;99.90
15013;DHT22;7603;49.432;11.418;2023-03-14T04:14:02;7.50;99.90
15013;DHT22;7603;49.432;11.418;2023-03-14T04:16:28;7.50;99.90
15013;DHT22;7603;49.432;11.418;2023-03-14T04:18:53;7.50;99.90
15013;DHT22;7603;49.432;11.418;2023-03-14T04:21:19;7.50;99.90
15013;DHT22;7603;49.432;11.418;2023-03-14T04:23:44;7.40;99.90
15013;DHT22;7603;49.432;11.418;2023-03-14T04:26:10;7.50;99.90
15013;DHT22;7603;49.432;11.418;2023-03-14T04:28:35;7.40;99.90
15013;DHT22;7603;49.432;11.418;2023-03-14T04:31:16;7.40;99.90
15013;DHT22;7603;49.432;11.418;2023-03-14T04:33:45;7.40;99.90
15013;DHT22;7603;49.432;11.418;2023-03-14T04:36:12;7.40;99.90
15013;DHT22;7603;49.432;11.418;2023-03-14T04:38:38;7.30;99.90
15013;DHT22;7603;49.432;11.418;2023-03-14T04:41:04;7.30;99.90
15013;DHT22;7603;49.432;11.418;2023-03-14T04:43:30;7.30;99.90
15013;DHT22;7603;49.432;11.418;2023-03-14T04:45:57;7.30;99.90
15013;DHT22;7603;49.432;11.418;2023-03-14T04:48:23;7.30;99.90
15013;DHT22;7603;49.432;11.418;2023-03-14T04:50:49;7.30;99.90
15013;DHT22;7603;49.432;11.418;2023-03-14T04:53:16;7.30;99.90
15013;DHT22;7603;49.432;11.418;2023-03-14T04:55:42;7.30;99.90
15013;DHT22;7603;49.432;11.418;2023-03-14T04:58:08;7.30;99.90
15013;DHT22;7603;49.432;11.418;2023-03-14T05:00:33;7.30;99.90
15013;DHT22;7603;49.432;11.418;2023-03-14T05:02:59;7.30;99.90
15013;DHT22;7603;49.432;11.418;2023-03-14T05:05:25;7.30;99.90
15013;DHT22;7603;49.432;11.418;2023-03-14T05:07:51;7.30;99.90
15013;DHT22;7603;49.432;11.418;2023-03-14T05:10:17;7.40;99.90
15013;DHT22;7603;49.432;11.418;2023-03-14T05:12:42;7.30;99.90
15013;DHT22;7603;49.432;11.418;2023-03-14T05:15:08;7.30;99.90
15013;DHT22;7603;49.432;11.418;2023-03-14T05:17:34;7.30;99.90
15013;DHT22;7603;49.432;11.418;2023-03-14T05:20:00;7.30;99.90
15013;DHT22;7603;49.432;11.418;2023-03-14T05:22:26;7.30;99.90
15013;DHT22;7603;49.432;11.418;2023-03-14T05:24:52;7.30;99.90
15013;DHT22;7603;49.432;11.418;2023-03-14T05:27:22;7.30;99.90
15013;DHT22;7603;49.432;11.418;2023-03-14T05:29:47;7.30;99.90
15013;DHT22;7603;49.432;11.418;2023-03-14T05:32:13;7.30;99.90
15013;DHT22;7603;49.432;11.418;2023-03-14T05:34:38;7.30;99.90
15013;DHT22;7603;49.432;11.418;2023-03-14T05:37:04;7.20;99.90
15013;DHT22;7603;49.432;11.418;2023-03-14T05:39:30;7.20;99.90
15013;DHT22;7603;49.432;11.418;2023-03-14T05:41:55;7.20;99.90
15013;DHT22;7603;49.432;11.418;2023-03-14T05:44:21;7.20;99.90
15013;DHT22;7603;49.432;11.418;2023-03-14T05:46:47;7.20;99.90
15013;DHT22;7603;49.432;11.418;2023-03-14T05:49:12;7.20;99.90
15013;DHT22;7603;49.432;11.418;2023-03-14T05:51:38;7.10;99.90
15013;DHT22;7603;49.432;11.418;2023-03-14T05:54:03;7.10;99.90
15013;DHT22;7603;49.432;11.418;2023-03-14T05:56:29;7.20;99.90
15013;DHT22;7603;49.432;11.418;2023-03-14T05:58:55;7.20;99.90
15013;DHT22;7603;49.432;11.418;2023-03-14T06:01:20;7.20;99.90
15013;DHT22;7603;49.432;11.418;2023-03-14T06:03:46;7.20;99.90
15013;DHT22;7603;49.432;11.418;2023-03-14T06:06:11;7.20;99.90
15013;DHT22;7603;49.432;11.418;2023-03-14T06:08:37;7.20;99.90
15013;DHT22;7603;49.432;11.418;2023-03-14T06:11:04;7.20;99.90
15013;DHT22;7603;49.432;11.418;2023-03-14T06:13:29;7.20;99.90
15013;DHT22;7603;49.432;11.418;2023-03-14T06:15:55;7.20;99.90
15013;DHT22;7603;49.432;11.418;2023-03-14T06:18:22;7.20;99.90
15013;DHT22;7603;49.432;11.418;2023-03-14T06:20:48;7.30;99.90
15013;DHT22;7603;49.432;11.418;2023-03-14T06:23:13;7.30;99.90
15013;DHT22;7603;49.432;11.418;2023-03-14T06:25:39;7.30;99.90
15013;DHT22;7603;49.432;11.418;2023-03-14T06:28:05;7.40;99.90
15013;DHT22;7603;49.432;11.418;2023-03-14T06:30:31;7.40;99.90
15013;DHT22;7603;49.432;11.418;2023-03-14T06:32:56;7.40;99.90
15013;DHT22;7603;49.432;11.418;2023-03-14T06:35:22;7.40;99.90
15013;DHT22;7603;49.432;11.418;2023-03-14T06:37:48;7.50;99.90
15013;DHT22;7603;49.432;11.418;2023-03-14T06:40:14;7.50;99.90
15013;DHT22;7603;49.432;11.418;2023-03-14T06:42:43;7.60;99.90
15013;DHT22;7603;49.432;11.418;2023-03-14T06:45:10;7.60;99.90
15013;DHT22;7603;49.432;11.418;2023-03-14T06:47:36;7.70;99.90
15013;DHT22;7603;49.432;11.418;2023-03-14T06:50:04;7.80;99.90
15013;DHT22;7603;49.432;11.418;2023-03-14T06:52:30;7.80;99.90
15013;DHT22;7603;49.432;11.418;2023-03-14T06:54:56;7.80;99.90
15013;DHT22;7603;49.432;11.418;2023-03-14T06:57:22;7.90;99.90
15013;DHT22;7603;49.432;11.418;2023-03-14T06:59:48;8.00;99.90
15013;DHT22;7603;49.432;11.418;2023-03-14T07:02:13;8.00;99.90
15013;DHT22;7603;49.432;11.418;2023-03-14T07:04:39;8.10;99.90
15013;DHT22;7603;49.432;11.418;2023-03-14T07:07:05;8.20;99.90
15013;DHT22;7603;49.432;11.418;2023-03-14T07:09:31;8.20;99.90
15013;DHT22;7603;49.432;11.418;2023-03-14T07:11:57;8.30;99.90
15013;DHT22;7603;49.432;11.418;2023-03-14T07:14:23;8.40;99.90
15013;DHT22;7603;49.432;11.418;2023-03-14T07:16:49;8.40;99.90
15013;DHT22;7603;49.432;11.418;2023-03-14T07:19:14;8.40;99.90
15013;DHT22;7603;49.432;11.418;2023-03-14T07:21:40;8.60;99.90
15013;DHT22;7603;49.432;11.418;2023-03-14T07:24:06;8.70;99.90
15013;DHT22;7603;49.432;11.418;2023-03-14T07:26:32;8.80;99.90
15013;DHT22;7603;49.432;11.418;2023-03-14T07:28:57;8.90;99.90
15013;DHT22;7603;49.432;11.418;2023-03-14T07:31:23;8.90;99.90
15013;DHT22;7603;49.432;11.418;2023-03-14T07:33:49;9.00;99.90
15013;DHT22;7603;49.432;11.418;2023-03-14T07:36:15;9.10;99.90
15013;DHT22;7603;49.432;11.418;2023-03-14T07:38:41;9.20;99.90
15013;DHT22;7603;49.432;11.418;2023-03-14T07:41:07;9.20;99.90
15013;DHT22;7603;49.432;11.418;2023-03-14T07:43:33;9.20;99.90
15013;DHT22;7603;49.432;11.418;2023-03-14T07:45:59;9.20;99.90
15013;DHT22;7603;49.432;11.418;2023-03-14T07:48:25;9.30;99.90
15013;DHT22;7603;49.432;11.418;2023-03-14T07:50:54;9.40;99.90
15013;DHT22;7603;49.432;11.418;2023-03-14T07:53:20;9.40;99.90
15013;DHT22;7603;49.432;11.418;2023-03-14T07:55:46;9.40;99.90
15013;DHT22;7603;49.432;11.418;2023-03-14T07:58:13;9.30;99.90
15013;DHT22;7603;49.432;11.418;2023-03-14T08:00:39;9.30;99.90
15013;DHT22;7603;49.432;11.418;2023-03-14T08:03:04;9.20;99.90
15013;DHT22;7603;49.432;11.418;2023-03-14T08:05:30;9.20;99.90
15013;DHT22;7603;49.432;11.418;2023-03-14T08:07:55;9.10;99.90
15013;DHT22;7603;49.432;11.418;2023-03-14T08:10:21;9.20;99.90
15013;DHT22;7603;49.432;11.418;2023-03-14T08:12:49;9.20;99.90
15013;DHT22;7603;49.432;11.418;2023-03-14T08:15:14;9.20;99.90
15013;DHT22;7603;49.432;11.418;2023-03-14T08:17:40;9.30;99.90
15013;DHT22;7603;49.432;11.418;2023-03-14T08:20:06;9.30;99.90
15013;DHT22;7603;49.432;11.418;2023-03-14T08:22:33;9.40;99.90
15013;DHT22;7603;49.432;11.418;2023-03-14T08:24:59;9.50;99.90
15013;DHT22;7603;49.432;11.418;2023-03-14T08:27:24;9.60;99.90
15013;DHT22;7603;49.432;11.418;2023-03-14T08:29:50;9.70;99.90
15013;DHT22;7603;49.432;11.418;2023-03-14T08:32:16;9.70;99.90
15013;DHT22;7603;49.432;11.418;2023-03-14T08:34:42;9.90;99.90
15013;DHT22;7603;49.432;11.418;2023-03-14T08:37:07;10.10;99.90
15013;DHT22;7603;49.432;11.418;2023-03-14T08:39:33;10.20;99.90
15013;DHT22;7603;49.432;11.418;2023-03-14T08:41:59;10.30;99.90
15013;DHT22;7603;49.432;11.418;2023-03-14T08:44:24;10.60;99.90
15013;DHT22;7603;49.432;11.418;2023-03-14T08:46:50;10.70;99.90
15013;DHT22;7603;49.432;11.418;2023-03-14T08:49:15;10.80;99.90
15013;DHT22;7603;49.432;11.418;2023-03-14T08:51:41;10.90;99.90
15013;DHT22;7603;49.432;11.418;2023-03-14T08:54:10;11.20;99.90
15013;DHT22;7603;49.432;11.418;2023-03-14T08:56:36;11.60;99.90
15013;DHT22;7603;49.432;11.418;2023-03-14T08:59:03;11.90;99.90
15013;DHT22;7603;49.432;11.418;2023-03-14T09:01:29;12.10;99.90
15013;DHT22;7603;49.432;11.418;2023-03-14T09:03:55;12.30;99.90
15013;DHT22;7603;49.432;11.418;2023-03-14T09:06:21;12.40;99.90
15013;DHT22;7603;49.432;11.418;2023-03-14T09:08:47;12.50;99.90
15013;DHT22;7603;49.432;11.418;2023-03-14T09:11:13;12.60;99.90
15013;DHT22;7603;49.432;11.418;2023-03-14T09:13:39;12.60;99.90
15013;DHT22;7603;49.432;11.418;2023-03-14T09:16:05;12.80;99.90
15013;DHT22;7603;49.432;11.418;2023-03-14T09:18:31;12.80;99.90
15013;DHT22;7603;49.432;11.418;2023-03-14T09:20:56;12.80;99.90
15013;DHT22;7603;49.432;11.418;2023-03-14T09:23:22;12.80;99.90
15013;DHT22;7603;49.432;11.418;2023-03-14T09:25:48;12.70;99.90
15013;DHT22;7603;49.432;11.418;2023-03-14T09:28:13;12.70;99.90
15013;DHT22;7603;49.432;11.418;2023-03-14T09:30:39;12.70;99.90
15013;DHT22;7603;49.432;11.418;2023-03-14T09:33:05;12.80;99.90
15013;DHT22;7603;49.432;11.418;2023-03-14T09:35:33;12.60;99.90
15013;DHT22;7603;49.432;11.418;2023-03-14T09:37:59;12.60;99.90
15013;DHT22;7603;49.432;11.418;2023-03-14T09:40:32;12.60;99.90
15013;DHT22;7603;49.432;11.418;2023-03-14T09:42:59;12.50;99.90
15013;DHT22;7603;49.432;11.418;2023-03-14T09:45:31;12.50;99.90
15013;DHT22;7603;49.432;11.418;2023-03-14T09:47:58;13.00;99.90
15013;DHT22;7603;49.432;11.418;2023-03-14T09:50:25;13.70;99.90
15013;DHT22;7603;49.432;11.418;2023-03-14T09:53:09;14.80;99.90
15013;DHT22;7603;49.432;11.418;2023-03-14T09:55:37;16.00;99.90
15013;DHT22;7603;49.432;11.418;2023-03-14T09:58:10;16.90;99.90
15013;DHT22;7603;49.432;11.418;2023-03-14T10:00:37;17.70;99.90
15013;DHT22;7603;49.432;11.418;2023-03-14T10:05:37;17.60;99.90
15013;DHT22;7603;49.432;11.418;2023-03-14T10:08:02;17.20;99.90
15013;DHT22;7603;49.432;11.418;2023-03-14T10:10:28;17.10;99.90
15013;DHT22;7603;49.432;11.418;2023-03-14T10:15:32;16.20;99.90
15013;DHT22;7603;49.432;11.418;2023-03-14T10:18:00;15.90;99.90
15013;DHT22;7603;49.432;11.418;2023-03-14T10:23:19;15.40;99.90
15013;DHT22;7603;49.432;11.418;2023-03-14T10:26:08;15.20;99.90
15013;DHT22;7603;49.432;11.418;2023-03-14T10:28:41;14.80;99.90
15013;DHT22;7603;49.432;11.418;2023-03-14T10:31:08;14.60;99.90
15013;DHT22;7603;49.432;11.418;2023-03-14T10:33:36;14.10;99.90
15013;DHT22;7603;49.432;11.418;2023-03-14T10:36:23;13.70;99.90
15013;DHT22;7603;49.432;11.418;2023-03-14T10:39:45;13.30;99.90
15013;DHT22;7603;49.432;11.418;2023-03-14T10:41:48;13.20;99.90
15013;DHT22;7603;49.432;11.418;2023-03-14T10:44:19;13.20;99.90
15013;DHT22;7603;49.432;11.418;2023-03-14T10:46:59;13.30;99.90
15013;DHT22;7603;49.432;11.418;2023-03-14T10:49:34;13.50;99.90
15013;DHT22;7603;49.432;11.418;2023-03-14T10:52:22;13.80;99.90
15013;DHT22;7603;49.432;11.418;2023-03-14T10:55:08;14.00;99.90
15013;DHT22;7603;49.432;11.418;2023-03-14T10:57:41;14.10;99.90
15013;DHT22;7603;49.432;11.418;2023-03-14T11:08:27;14.30;99.90
15013;DHT22;7603;49.432;11.418;2023-03-14T11:16:38;14.00;99.90
15013;DHT22;7603;49.432;11.418;2023-03-14T11:19:32;13.90;99.90
15013;DHT22;7603;49.432;11.418;2023-03-14T11:22:20;13.60;99.90
15013;DHT22;7603;49.432;11.418;2023-03-14T11:27:39;13.40;99.90
15013;DHT22;7603;49.432;11.418;2023-03-14T11:38:34;13.60;99.90
15013;DHT22;7603;49.432;11.418;2023-03-14T11:41:01;13.50;99.90
15013;DHT22;7603;49.432;11.418;2023-03-14T11:46:07;12.90;99.90
15013;DHT22;7603;49.432;11.418;2023-03-14T11:51:28;12.00;99.90
15013;DHT22;7603;49.432;11.418;2023-03-14T11:56:43;11.70;99.90
15013;DHT22;7603;49.432;11.418;2023-03-14T11:59:20;11.70;99.90
15013;DHT22;7603;49.432;11.418;2023-03-14T12:01:54;11.80;99.90
15013;DHT22;7603;49.432;11.418;2023-03-14T12:05:10;12.00;99.90
15013;DHT22;7603;49.432;11.418;2023-03-14T12:07:28;12.40;99.90
15013;DHT22;7603;49.432;11.418;2023-03-14T12:09:55;13.00;99.90
15013;DHT22;7603;49.432;11.418;2023-03-14T12:12:24;13.60;99.90
15013;DHT22;7603;49.432;11.418;2023-03-14T12:14:59;14.50;99.90
15013;DHT22;7603;49.432;11.418;2023-03-14T12:17:41;16.30;99.90
15013;DHT22;7603;49.432;11.418;2023-03-14T12:22:57;21.30;99.90
15013;DHT22;7603;49.432;11.418;2023-03-14T12:25:32;21.50;99.90
15013;DHT22;7603;49.432;11.418;2023-03-14T12:28:20;20.70;99.90
15013;DHT22;7603;49.432;11.418;2023-03-14T12:30:46;19.90;99.90
15013;DHT22;7603;49.432;11.418;2023-03-14T12:35:51;18.50;99.90
15013;DHT22;7603;49.432;11.418;2023-03-14T12:41:03;17.90;99.90
15013;DHT22;7603;49.432;11.418;2023-03-14T12:43:32;17.60;99.90
15013;DHT22;7603;49.432;11.418;2023-03-14T12:48:34;17.20;99.90
15013;DHT22;7603;49.432;11.418;2023-03-14T12:51:05;16.70;99.90
15013;DHT22;7603;49.432;11.418;2023-03-14T12:56:45;16.20;99.90
15013;DHT22;7603;49.432;11.418;2023-03-14T12:59:28;16.10;99.90
15013;DHT22;7603;49.432;11.418;2023-03-14T13:02:00;16.20;99.90
15013;DHT22;7603;49.432;11.418;2023-03-14T13:04:29;16.40;99.90
15013;DHT22;7603;49.432;11.418;2023-03-14T13:06:58;16.60;99.90
15013;DHT22;7603;49.432;11.418;2023-03-14T13:12:03;16.20;99.90
15013;DHT22;7603;49.432;11.418;2023-03-14T13:14:33;16.00;99.90
15013;DHT22;7603;49.432;11.418;2023-03-14T13:17:02;15.70;99.90
15013;DHT22;7603;49.432;11.418;2023-03-14T13:19:30;15.40;99.90
15013;DHT22;7603;49.432;11.418;2023-03-14T13:22:26;15.20;99.90
15013;DHT22;7603;49.432;11.418;2023-03-14T13:25:00;15.00;99.90
15013;DHT22;7603;49.432;11.418;2023-03-14T13:27:26;14.90;99.90
15013;DHT22;7603;49.432;11.418;2023-03-14T13:29:52;14.60;99.90
15013;DHT22;7603;49.432;11.418;2023-03-14T13:32:25;13.90;99.90
15013;DHT22;7603;49.432;11.418;2023-03-14T13:34:54;12.20;99.90
15013;DHT22;7603;49.432;11.418;2023-03-14T13:37:22;11.30;99.90
15013;DHT22;7603;49.432;11.418;2023-03-14T13:39:50;10.60;99.90
15013;DHT22;7603;49.432;11.418;2023-03-14T13:42:16;10.10;99.90
15013;DHT22;7603;49.432;11.418;2023-03-14T13:44:44;9.70;99.90
15013;DHT22;7603;49.432;11.418;2023-03-14T13:47:18;9.50;99.90
15013;DHT22;7603;49.432;11.418;2023-03-14T13:49:45;9.60;99.90
15013;DHT22;7603;49.432;11.418;2023-03-14T13:52:29;9.70;99.90
15013;DHT22;7603;49.432;11.418;2023-03-14T13:54:57;9.70;99.90
15013;DHT22;7603;49.432;11.418;2023-03-14T13:57:23;9.60;99.90
15013;DHT22;7603;49.432;11.418;2023-03-14T14:00:04;9.50;99.90
15013;DHT22;7603;49.432;11.418;2023-03-14T14:02:35;9.40;99.90
15013;DHT22;7603;49.432;11.418;2023-03-14T14:05:02;9.30;99.90
15013;DHT22;7603;49.432;11.418;2023-03-14T14:07:28;9.20;99.90
15013;DHT22;7603;49.432;11.418;2023-03-14T14:09:55;9.10;99.90
15013;DHT22;7603;49.432;11.418;2023-03-14T14:15:04;8.90;99.90
15013;DHT22;7603;49.432;11.418;2023-03-14T14:17:34;8.90;99.90
15013;DHT22;7603;49.432;11.418;2023-03-14T14:20:02;8.90;99.90
15013;DHT22;7603;49.432;11.418;2023-03-14T14:22:30;8.80;99.90
15013;DHT22;7603;49.432;11.418;2023-03-14T14:24:56;8.70;99.90
15013;DHT22;7603;49.432;11.418;2023-03-14T14:27:37;8.70;99.90
15013;DHT22;7603;49.432;11.418;2023-03-14T14:30:24;8.60;99.90
15013;DHT22;7603;49.432;11.418;2023-03-14T14:32:50;8.60;99.90
15013;DHT22;7603;49.432;11.418;2023-03-14T14:35:33;8.50;99.90
15013;DHT22;7603;49.432;11.418;2023-03-14T14:38:00;8.40;99.90
15013;DHT22;7603;49.432;11.418;2023-03-14T14:40:29;8.50;99.90
15013;DHT22;7603;49.432;11.418;2023-03-14T14:43:02;8.40;99.90
15013;DHT22;7603;49.432;11.418;2023-03-14T14:45:28;8.40;99.90
15013;DHT22;7603;49.432;11.418;2023-03-14T14:50:30;8.30;99.90
15013;DHT22;7603;49.432;11.418;2023-03-14T14:53:02;8.10;99.90
15013;DHT22;7603;49.432;11.418;2023-03-14T14:55:39;7.90;99.90
15013;DHT22;7603;49.432;11.418;2023-03-14T14:58:35;7.80;99.90
15013;DHT22;7603;49.432;11.418;2023-03-14T15:03:31;7.70;99.90
15013;DHT22;7603;49.432;11.418;2023-03-14T15:05:58;7.70;99.90
15013;DHT22;7603;49.432;11.418;2023-03-14T15:08:24;7.50;99.90
15013;DHT22;7603;49.432;11.418;2023-03-14T15:10:50;7.40;99.90
15013;DHT22;7603;49.432;11.418;2023-03-14T15:13:16;7.30;99.90
15013;DHT22;7603;49.432;11.418;2023-03-14T15:15:42;7.20;99.90
15013;DHT22;7603;49.432;11.418;2023-03-14T15:18:15;7.10;99.90
15013;DHT22;7603;49.432;11.418;2023-03-14T15:20:42;6.90;99.90
15013;DHT22;7603;49.432;11.418;2023-03-14T15:23:11;6.70;99.90
15013;DHT22;7603;49.432;11.418;2023-03-14T15:25:37;6.60;99.90
15013;DHT22;7603;49.432;11.418;2023-03-14T15:28:19;6.50;99.90
15013;DHT22;7603;49.432;11.418;2023-03-14T15:30:49;6.40;99.90
15013;DHT22;7603;49.432;11.418;2023-03-14T15:33:15;6.30;99.90
15013;DHT22;7603;49.432;11.418;2023-03-14T15:35:42;6.20;99.90
15013;DHT22;7603;49.432;11.418;2023-03-14T15:38:10;6.20;99.90
15013;DHT22;7603;49.432;11.418;2023-03-14T15:40:36;6.20;99.90
15013;DHT22;7603;49.432;11.418;2023-03-14T15:43:02;6.10;99.90
15013;DHT22;7603;49.432;11.418;2023-03-14T15:45:27;6.00;99.90
15013;DHT22;7603;49.432;11.418;2023-03-14T15:47:53;6.00;99.90
15013;DHT22;7603;49.432;11.418;2023-03-14T15:50:19;5.80;99.90
15013;DHT22;7603;49.432;11.418;2023-03-14T15:52:45;5.80;99.90
15013;DHT22;7603;49.432;11.418;2023-03-14T15:55:10;5.70;99.90
15013;DHT22;7603;49.432;11.418;2023-03-14T15:57:36;5.70;99.90
15013;DHT22;7603;49.432;11.418;2023-03-14T16:00:03;5.70;99.90
15013;DHT22;7603;49.432;11.418;2023-03-14T16:02:30;5.60;99.90
15013;DHT22;7603;49.432;11.418;2023-03-14T16:04:55;5.50;99.90
15013;DHT22;7603;49.432;11.418;2023-03-14T16:07:21;5.60;99.90
15013;DHT22;7603;49.432;11.418;2023-03-14T16:09:47;5.50;99.90
15013;DHT22;7603;49.432;11.418;2023-03-14T16:12:12;5.50;99.90
15013;DHT22;7603;49.432;11.418;2023-03-14T16:14:38;5.50;99.90
15013;DHT22;7603;49.432;11.418;2023-03-14T16:17:08;5.50;99.90
15013;DHT22;7603;49.432;11.418;2023-03-14T16:19:36;5.50;99.90
15013;DHT22;7603;49.432;11.418;2023-03-14T16:22:01;5.50;99.90
15013;DHT22;7603;49.432;11.418;2023-03-14T16:24:27;5.50;99.90
15013;DHT22;7603;49.432;11.418;2023-03-14T16:26:53;5.50;99.90
15013;DHT22;7603;49.432;11.418;2023-03-14T16:29:19;5.50;99.90
15013;DHT22;7603;49.432;11.418;2023-03-14T16:31:44;5.50;99.90
15013;DHT22;7603;49.432;11.418;2023-03-14T16:34:10;5.40;99.90
15013;DHT22;7603;49.432;11.418;2023-03-14T16:36:36;5.30;99.90
15013;DHT22;7603;49.432;11.418;2023-03-14T16:39:01;5.40;99.90
15013;DHT22;7603;49.432;11.418;2023-03-14T16:41:27;5.30;99.90
15013;DHT22;7603;49.432;11.418;2023-03-14T16:43:56;5.30;99.90
15013;DHT22;7603;49.432;11.418;2023-03-14T16:46:22;5.30;99.90
15013;DHT22;7603;49.432;11.418;2023-03-14T16:48:49;5.20;99.90
15013;DHT22;7603;49.432;11.418;2023-03-14T16:51:16;5.30;99.90
15013;DHT22;7603;49.432;11.418;2023-03-14T16:53:42;5.20;99.90
15013;DHT22;7603;49.432;11.418;2023-03-14T16:56:08;5.20;99.90
15013;DHT22;7603;49.432;11.418;2023-03-14T16:58:35;5.20;99.90
15013;DHT22;7603;49.432;11.418;2023-03-14T17:01:08;5.20;99.90